Time;durP1;ratioP1;P1;durP2;ratioP2;P2;SDS_P1;SDS_P2;PMS_P1;PMS_P2;Temp;Humidity;BMP_temperature;BMP_pressure;BME280_temperature;BME280_humidity;BME280_pressure;Samples;Min_cycle;Max_cycle;Signal;HPM_P1;HPM_P2
2022/09/12 00:00:08;;;;;;;832.77;778.20;;;;;;;20.98;78.79;99188.28;329373;29;1501;-83
2022/09/12 00:00:19;;;;;;;832.25;778.10;;;;;;;20.98;78.66;99190.94;329210;29;1308;-83
2022/09/12 00:00:32;;;;;;;836.60;782.38;;;;;;;21.01;78.84;99199.47;334015;29;1334;-83
2022/09/12 00:00:43;;;;;;;837.67;783.65;;;;;;;21.02;78.57;99192.34;329796;29;2965;-83
2022/09/12 00:01:07;;;;;;;832.88;778.95;;;;;;;21.03;78.84;99188.69;327693;30;2936;-84
2022/09/12 00:01:22;;;;;;;822.10;768.65;;;;;;;21.04;78.57;99190.38;328745;30;1300;-84
2022/09/12 00:01:32;;;;;;;827.13;773.60;;;;;;;21.01;77.99;99193.31;322222;30;1386;-84
2022/09/12 00:01:42;;;;;;;834.30;780.53;;;;;;;20.97;78.49;99194.56;320995;30;1693;-84
2022/09/12 00:01:53;;;;;;;833.83;780.03;;;;;;;20.96;78.54;99188.41;320243;30;1596;-84
2022/09/12 00:02:04;;;;;;;837.37;783.50;;;;;;;20.96;78.93;99195.56;325747;30;1330;-83
2022/09/12 00:02:14;;;;;;;839.47;785.38;;;;;;;20.96;78.35;99187.56;326682;30;2002;-83
2022/09/12 00:02:25;;;;;;;850.97;796.23;;;;;;;20.98;78.22;99190.94;325176;30;1752;-83
2022/09/12 00:02:35;;;;;;;852.05;797.00;;;;;;;20.97;78.32;99191.91;322066;30;1208;-85
2022/09/12 00:02:46;;;;;;;848.60;793.50;;;;;;;20.98;78.28;99190.94;325362;30;1271;-83
2022/09/12 00:02:56;;;;;;;840.92;786.13;;;;;;;20.92;78.46;99193.16;327734;30;1433;-84
2022/09/12 00:03:07;;;;;;;841.05;786.15;;;;;;;20.88;78.25;99191.75;322991;30;1696;-83
2022/09/12 00:03:17;;;;;;;838.43;783.50;;;;;;;20.89;78.61;99193.44;323186;30;1319;-83
2022/09/12 00:03:27;;;;;;;838.70;783.60;;;;;;;20.87;78.54;99195.41;320141;30;1912;-83
2022/09/12 00:03:38;;;;;;;835.83;780.90;;;;;;;20.90;78.44;99195.13;316675;30;2068;-83
2022/09/12 00:03:57;;;;;;;840.10;784.95;;;;;;;20.88;78.33;99186.44;317356;31;1300;-83
2022/09/12 00:04:08;;;;;;;832.20;777.78;;;;;;;20.91;78.56;99191.47;313218;31;2002;-84
2022/09/12 00:04:19;;;;;;;826.75;772.70;;;;;;;20.93;78.69;99194.84;310766;31;1266;-84
2022/09/12 00:04:29;;;;;;;831.40;777.30;;;;;;;20.93;78.52;99194.84;308609;31;2233;-84
2022/09/12 00:04:40;;;;;;;834.00;779.70;;;;;;;20.95;78.46;99197.38;308163;31;1796;-84
2022/09/12 00:04:50;;;;;;;832.97;778.40;;;;;;;20.92;78.77;99203.81;307608;32;1201;-84
2022/09/12 00:05:00;;;;;;;829.20;774.97;;;;;;;20.91;78.87;99193.31;310965;31;1360;-83
2022/09/12 00:05:11;;;;;;;828.13;774.03;;;;;;;20.91;78.45;99194.16;310283;31;1565;-82
2022/09/12 00:05:22;;;;;;;827.67;773.85;;;;;;;20.86;78.60;99191.06;305684;31;2033;-83
2022/09/12 00:05:35;;;;;;;831.30;777.25;;;;;;;20.89;78.79;99198.75;306451;32;1199;-83
2022/09/12 00:05:46;;;;;;;834.90;780.53;;;;;;;20.90;78.94;99195.13;302441;32;2732;-83
2022/09/12 00:05:56;;;;;;;841.42;786.40;;;;;;;20.90;79.00;99200.44;301560;32;3382;-87
2022/09/12 00:06:21;;;;;;;839.67;784.43;;;;;;;20.93;78.54;99200.16;298056;32;3192;-82
2022/09/12 00:06:33;;;;;;;843.92;789.53;;;;;;;20.92;78.75;99193.16;297934;33;873;-83
2022/09/12 00:06:44;;;;;;;839.42;785.55;;;;;;;20.93;78.98;99200.16;295668;33;2377;-83
2022/09/12 00:06:54;;;;;;;836.70;782.85;;;;;;;20.96;79.23;99193.72;294580;33;2486;-82
2022/09/12 00:07:05;;;;;;;841.93;787.83;;;;;;;20.92;78.50;99190.50;296212;33;1336;-82
2022/09/12 00:07:15;;;;;;;847.13;792.78;;;;;;;20.85;78.55;99194.69;298070;32;1785;-83
2022/09/12 00:07:26;;;;;;;848.13;793.43;;;;;;;20.78;79.14;99192.75;295938;33;2579;-84
2022/09/12 00:07:36;;;;;;;845.25;790.53;;;;;;;20.73;79.06;99189.66;295234;33;1421;-83
2022/09/12 00:07:46;;;;;;;843.37;788.10;;;;;;;20.71;79.48;99195.13;294128;33;3188;-82
2022/09/12 00:07:59;;;;;;;837.65;782.38;;;;;;;20.71;79.41;99183.63;292504;33;3679;-82
2022/09/12 00:08:10;;;;;;;833.80;778.63;;;;;;;20.73;79.95;99195.81;290851;33;3393;-84
2022/09/12 00:08:21;;;;;;;840.65;785.38;;;;;;;20.75;79.66;99185.03;290382;34;1413;-83
2022/09/12 00:08:31;;;;;;;838.93;783.97;;;;;;;20.74;79.45;99189.53;285374;34;3949;-83
2022/09/12 00:08:42;;;;;;;838.75;783.53;;;;;;;20.75;79.36;99187.72;286278;34;3317;-82
2022/09/12 00:09:00;;;;;;;830.63;775.57;;;;;;;20.80;79.32;99188.09;287002;33;3270;-83
2022/09/12 00:09:12;;;;;;;841.20;785.90;;;;;;;20.83;79.33;99188.66;286729;34;3623;-83
2022/09/12 00:09:22;;;;;;;847.75;792.17;;;;;;;20.86;79.55;99183.06;282605;34;2841;-83
2022/09/12 00:09:34;;;;;;;852.70;796.70;;;;;;;20.90;79.13;99191.63;281740;35;1339;-83
2022/09/12 00:09:44;;;;;;;847.63;791.47;;;;;;;20.93;79.24;99188.69;280369;34;3686;-82
2022/09/12 00:09:55;;;;;;;847.95;791.88;;;;;;;20.93;79.25;99188.69;276688;34;4346;-84
2022/09/12 00:10:06;;;;;;;844.73;788.73;;;;;;;20.95;79.07;99183.22;277395;35;2319;-83
2022/09/12 00:10:18;;;;;;;845.30;789.70;;;;;;;20.92;78.99;99187.00;272403;35;4861;-83
2022/09/12 00:10:29;;;;;;;840.05;785.25;;;;;;;20.90;78.35;99183.63;270570;35;5786;-82
2022/09/12 00:13:01;;;;;;;788.41;736.56;;;;;;;20.87;78.85;99179.44;2504182;27;20272;-83
2022/09/12 00:13:11;;;;;;;873.73;819.07;;;;;;;20.86;79.32;99183.06;352980;28;1175;-83
2022/09/12 00:13:22;;;;;;;877.80;822.90;;;;;;;20.88;79.39;99186.44;350167;28;1022;-83
2022/09/12 00:13:32;;;;;;;881.97;826.57;;;;;;;20.89;79.30;99187.28;348942;28;1179;-83
2022/09/12 00:13:43;;;;;;;868.88;814.00;;;;;;;20.89;79.14;99185.47;349140;28;1652;-83
2022/09/12 00:13:58;;;;;;;854.77;799.90;;;;;;;20.92;79.09;99189.66;347452;28;979;-84
2022/09/12 00:14:11;;;;;;;855.15;800.55;;;;;;;20.91;78.93;99185.31;349321;28;1699;-83
2022/09/12 00:14:22;;;;;;;854.03;799.53;;;;;;;20.93;78.96;99181.53;347466;28;1655;-83
2022/09/12 00:14:33;;;;;;;859.78;804.97;;;;;;;20.93;79.14;99186.88;348966;28;1469;-83
2022/09/12 00:14:43;;;;;;;863.57;808.67;;;;;;;20.96;78.88;99187.56;346062;28;1291;-83
2022/09/12 00:14:54;;;;;;;866.88;811.83;;;;;;;20.92;79.21;99184.34;346601;28;1312;-83
2022/09/12 00:15:05;;;;;;;871.47;816.17;;;;;;;20.94;79.48;99187.72;346315;28;1317;-83
2022/09/12 00:15:15;;;;;;;866.17;811.17;;;;;;;20.92;78.89;99195.81;347783;28;1268;-84
2022/09/12 00:15:26;;;;;;;861.67;807.03;;;;;;;20.86;79.27;99180.41;348207;28;1279;-81
2022/09/12 00:15:40;;;;;;;851.50;797.27;;;;;;;20.87;79.53;99184.75;349288;28;1216;-81
2022/09/12 00:15:51;;;;;;;851.28;797.20;;;;;;;20.88;79.03;99185.59;350442;28;1046;-83
2022/09/12 00:16:01;;;;;;;850.77;796.90;;;;;;;20.87;79.52;99182.09;348930;28;1260;-84
2022/09/12 00:16:20;;;;;;;848.10;794.22;;;;;;;20.90;79.56;99179.16;347423;28;1219;-84
2022/09/12 00:16:32;;;;;;;851.28;797.28;;;;;;;20.89;79.54;99181.97;345964;28;1291;-83
2022/09/12 00:16:42;;;;;;;855.08;800.72;;;;;;;20.90;79.82;99181.81;348555;28;1461;-83
2022/09/12 00:16:52;;;;;;;852.20;797.75;;;;;;;20.90;79.27;99184.47;347512;28;1242;-84
2022/09/12 00:17:03;;;;;;;861.47;806.40;;;;;;;20.89;79.31;99188.13;346526;28;1464;-83
2022/09/12 00:17:13;;;;;;;859.97;805.22;;;;;;;20.91;79.17;99182.66;345906;28;1299;-81
2022/09/12 00:17:24;;;;;;;860.67;805.90;;;;;;;20.89;79.48;99182.81;346026;28;1180;-81
2022/09/12 00:17:35;;;;;;;859.10;804.10;;;;;;;20.89;79.50;99181.97;348223;28;1355;-84
2022/09/12 00:17:45;;;;;;;857.50;802.40;;;;;;;20.90;79.43;99187.16;346575;28;1417;-84
2022/09/12 00:17:56;;;;;;;855.90;800.90;;;;;;;20.92;79.04;99187.84;348194;28;1182;-83
2022/09/12 00:18:07;;;;;;;858.83;804.25;;;;;;;20.92;79.40;99187.84;346931;28;1355;-83
2022/09/12 00:18:18;;;;;;;855.55;801.03;;;;;;;20.94;79.43;99182.38;345628;28;1309;-82
2022/09/12 00:18:28;;;;;;;856.75;802.33;;;;;;;20.92;79.09;99187.84;347782;28;1214;-82
2022/09/12 00:18:38;;;;;;;856.40;801.93;;;;;;;20.95;79.33;99186.72;343251;28;1261;-82
2022/09/12 00:18:49;;;;;;;854.47;800.27;;;;;;;20.94;79.11;99185.03;342853;28;822;-82
2022/09/12 00:19:00;;;;;;;856.03;801.55;;;;;;;20.96;79.22;99192.88;342415;28;2014;-82
2022/09/12 00:19:10;;;;;;;852.03;797.58;;;;;;;20.95;79.46;99188.56;345550;28;2868;-82
2022/09/12 00:19:21;;;;;;;852.10;797.50;;;;;;;20.97;79.60;99189.25;343926;28;1822;-82
2022/09/12 00:19:31;;;;;;;851.45;796.60;;;;;;;20.95;79.79;99192.06;340498;29;1901;-82
2022/09/12 00:19:41;;;;;;;853.43;798.40;;;;;;;20.95;79.73;99197.38;339243;29;2998;-82
2022/09/12 00:19:52;;;;;;;856.85;801.70;;;;;;;20.96;79.76;99185.75;342733;28;1329;-82
2022/09/12 00:20:05;;;;;;;861.27;806.30;;;;;;;20.97;79.49;99190.09;343945;28;1303;-84
2022/09/12 00:20:16;;;;;;;862.08;807.35;;;;;;;20.97;79.60;99197.22;343323;28;1429;-83
2022/09/12 00:20:26;;;;;;;860.10;805.40;;;;;;;20.91;79.59;99191.47;343715;28;902;-83
2022/09/12 00:20:42;;;;;;;857.85;802.97;;;;;;;20.93;79.64;99194.00;346101;28;1324;-83
2022/09/12 00:20:53;;;;;;;854.20;799.60;;;;;;;20.92;79.66;99195.00;345410;28;1320;-83
2022/09/12 00:21:03;;;;;;;857.50;802.60;;;;;;;20.91;80.13;99196.81;343737;28;1228;-83
2022/09/12 00:21:15;;;;;;;853.90;799.05;;;;;;;20.92;80.03;99182.53;341357;28;1334;-83
2022/09/12 00:21:25;;;;;;;853.88;798.95;;;;;;;20.93;79.86;99194.00;342182;28;1479;-83
2022/09/12 00:21:36;;;;;;;856.20;801.30;;;;;;;20.87;80.36;99190.06;339407;28;1217;-83
2022/09/12 00:21:47;;;;;;;856.00;801.05;;;;;;;20.84;80.47;99195.69;339784;29;1920;-83
2022/09/12 00:21:57;;;;;;;854.00;799.13;;;;;;;20.76;80.38;99198.22;341791;28;1367;-83
2022/09/12 00:22:07;;;;;;;848.28;793.60;;;;;;;20.76;80.63;99192.06;341175;29;1365;-83
2022/09/12 00:22:18;;;;;;;847.97;793.17;;;;;;;20.76;81.14;99192.06;338582;29;802;-83
2022/09/12 00:22:28;;;;;;;840.05;785.65;;;;;;;20.76;81.00;99195.56;341271;29;928;-83
2022/09/12 00:22:39;;;;;;;841.47;786.87;;;;;;;20.69;81.07;99191.75;343018;28;1192;-83
2022/09/12 00:22:49;;;;;;;832.07;777.90;;;;;;;20.67;81.73;99193.72;339884;28;1280;-82
2022/09/12 00:22:59;;;;;;;834.38;779.85;;;;;;;20.69;81.51;99197.06;338514;29;1221;-83
2022/09/12 00:23:10;;;;;;;833.70;779.17;;;;;;;20.68;81.65;99200.72;338491;29;1447;-82
2022/09/12 00:23:21;;;;;;;841.72;786.97;;;;;;;20.69;82.02;99197.06;336063;29;1606;-81
2022/09/12 00:23:31;;;;;;;841.50;786.90;;;;;;;20.67;81.88;99200.84;337982;29;917;-81
2022/09/12 00:23:42;;;;;;;835.10;780.57;;;;;;;20.70;82.05;99201.41;335461;29;1671;-81
2022/09/12 00:23:52;;;;;;;828.72;774.55;;;;;;;20.70;81.84;99204.06;333600;29;1603;-81
2022/09/12 00:24:03;;;;;;;830.10;775.97;;;;;;;20.71;82.14;99204.91;336341;29;1191;-81
2022/09/12 00:24:17;;;;;;;839.03;784.58;;;;;;;20.71;82.22;99203.09;333883;29;1410;-82
2022/09/12 00:24:27;;;;;;;844.58;790.17;;;;;;;20.70;82.19;99205.88;333002;29;1399;-83
2022/09/12 00:24:39;;;;;;;842.67;788.33;;;;;;;20.72;82.40;99202.13;335491;29;1327;-83
2022/09/12 00:24:50;;;;;;;836.45;782.38;;;;;;;20.72;82.11;99201.28;334548;29;1327;-83
2022/09/12 00:25:01;;;;;;;836.97;782.78;;;;;;;20.75;82.45;99212.47;328544;30;1518;-83
2022/09/12 00:25:11;;;;;;;835.53;781.28;;;;;;;20.76;82.74;99205.34;328384;29;1867;-83
2022/09/12 00:25:22;;;;;;;839.10;784.50;;;;;;;20.75;82.47;99203.66;326828;30;2235;-82
2022/09/12 00:25:32;;;;;;;834.15;779.70;;;;;;;20.74;81.62;99210.81;325993;30;1247;-82
2022/09/12 00:25:43;;;;;;;836.93;782.37;;;;;;;20.71;82.03;99205.75;326472;30;2119;-82
2022/09/12 00:25:54;;;;;;;830.52;776.18;;;;;;;20.70;82.25;99205.88;323808;30;2102;-82
2022/09/12 00:26:05;;;;;;;836.37;781.83;;;;;;;20.69;82.48;99202.38;322699;30;1248;-82
2022/09/12 00:26:16;;;;;;;842.25;787.72;;;;;;;20.69;82.19;99204.22;321840;30;1543;-84
2022/09/12 00:26:27;;;;;;;854.70;800.03;;;;;;;20.70;82.23;99206.72;323284;30;1587;-83
2022/09/12 00:26:37;;;;;;;854.87;800.20;;;;;;;20.69;83.01;99207.72;323082;30;1384;-83
2022/09/12 00:26:48;;;;;;;846.33;791.70;;;;;;;20.73;82.65;99208.28;321075;30;1378;-83
2022/09/12 00:26:58;;;;;;;838.87;784.40;;;;;;;20.75;82.52;99212.47;318156;30;2047;-82
2022/09/12 00:27:08;;;;;;;842.00;787.35;;;;;;;20.78;82.40;99206.91;312694;31;1866;-82
2022/09/12 00:27:19;;;;;;;845.20;790.47;;;;;;;20.74;82.02;99210.81;309378;32;812;-82
2022/09/12 00:27:29;;;;;;;848.87;793.70;;;;;;;20.71;82.52;99208.41;314233;31;2425;-82
2022/09/12 00:27:40;;;;;;;850.03;795.00;;;;;;;20.72;82.40;99212.75;313401;31;3075;-83
2022/09/12 00:27:50;;;;;;;851.63;796.57;;;;;;;20.73;82.44;99213.59;312717;31;3504;-83
2022/09/12 00:28:01;;;;;;;846.53;791.80;;;;;;;20.74;82.35;99208.16;311107;31;780;-83
2022/09/12 00:28:12;;;;;;;840.22;785.58;;;;;;;20.76;82.15;99214.16;309061;31;2797;-83
2022/09/12 00:28:22;;;;;;;840.53;785.60;;;;;;;20.76;82.26;99203.53;307248;31;2701;-83
2022/09/12 00:28:33;;;;;;;839.95;784.92;;;;;;;20.78;82.18;99219.34;307909;32;1843;-83
2022/09/12 00:28:44;;;;;;;842.15;787.05;;;;;;;20.74;82.21;99210.81;312818;31;2027;-83
2022/09/12 00:28:54;;;;;;;845.35;790.22;;;;;;;20.76;82.32;99202.69;313597;31;2963;-83
2022/09/12 00:29:05;;;;;;;858.10;802.60;;;;;;;20.75;82.70;99212.47;306127;32;1226;-83
2022/09/12 00:29:16;;;;;;;863.72;808.25;;;;;;;20.74;82.49;99210.81;306053;32;878;-82
2022/09/12 00:29:27;;;;;;;863.17;807.72;;;;;;;20.74;81.97;99210.81;307391;32;4714;-83
2022/09/12 00:29:37;;;;;;;859.92;804.60;;;;;;;20.72;82.53;99209.25;303908;31;3703;-83
2022/09/12 00:29:48;;;;;;;852.20;797.17;;;;;;;20.74;82.47;99210.81;304478;32;809;-83
2022/09/12 00:29:58;;;;;;;847.15;791.80;;;;;;;20.75;82.44;99212.47;305576;32;4566;-83
2022/09/12 00:30:09;;;;;;;850.57;794.97;;;;;;;20.76;82.16;99205.34;301607;32;4942;-83
2022/09/12 00:30:20;;;;;;;850.88;795.45;;;;;;;20.78;82.40;99206.06;299304;33;1307;-83
2022/09/12 00:30:30;;;;;;;854.85;799.67;;;;;;;20.76;82.35;99203.53;300506;32;1235;-83
2022/09/12 00:30:46;;;;;;;851.40;796.20;;;;;;;20.75;82.49;99212.47;299758;32;3334;-83
2022/09/12 00:30:56;;;;;;;849.92;794.88;;;;;;;20.75;82.54;99212.47;294086;33;3422;-83
2022/09/12 00:31:17;;;;;;;848.27;793.27;;;;;;;20.77;83.14;99217.66;292479;33;3555;-83
2022/09/12 00:31:28;;;;;;;847.67;793.22;;;;;;;20.76;82.92;99211.50;291918;33;6263;-82
2022/09/12 00:31:38;;;;;;;836.20;782.37;;;;;;;20.73;82.89;99217.09;291466;33;6475;-83
2022/09/12 00:31:49;;;;;;;840.08;785.70;;;;;;;20.75;82.70;99216.97;287889;34;1247;-82
2022/09/12 00:31:59;;;;;;;846.30;790.97;;;;;;;20.76;82.66;99211.50;286064;34;4821;-82
2022/09/12 00:32:10;;;;;;;851.00;795.35;;;;;;;20.74;82.99;99210.81;283306;34;5870;-82
2022/09/12 00:32:20;;;;;;;838.90;783.80;;;;;;;20.73;83.10;99214.44;280832;34;7572;-82
2022/09/12 00:32:31;;;;;;;842.05;787.08;;;;;;;20.74;82.85;99218.78;277629;35;1277;-82
2022/09/12 00:32:41;;;;;;;842.47;787.27;;;;;;;20.73;83.32;99219.75;277836;35;5923;-83
2022/09/12 00:32:53;;;;;;;845.13;789.80;;;;;;;20.73;83.19;99219.75;277787;35;5666;-83
2022/09/12 00:33:03;;;;;;;848.53;792.95;;;;;;;20.72;83.39;99220.75;277119;35;1439;-83
2022/09/12 00:33:16;;;;;;;855.50;799.67;;;;;;;20.73;83.62;99217.09;277249;35;5139;-83
2022/09/12 00:33:26;;;;;;;859.10;803.45;;;;;;;20.73;83.78;99221.56;274246;35;5791;-83
2022/09/12 00:35:28;;;;;;;779.70;727.86;;;;;;;20.73;83.17;99209.13;2504325;27;20487;-83
2022/09/12 00:35:45;;;;;;;853.40;799.27;;;;;;;20.75;83.42;99217.81;353482;28;1364;-82
2022/09/12 00:35:56;;;;;;;851.67;797.42;;;;;;;20.76;83.71;99218.66;350595;28;1468;-82
2022/09/12 00:36:17;;;;;;;837.50;783.67;;;;;;;20.73;83.79;99218.91;348084;28;1347;-82
2022/09/12 00:36:28;;;;;;;838.35;784.45;;;;;;;20.73;83.31;99217.09;346793;28;1356;-83
2022/09/12 00:36:39;;;;;;;842.97;788.92;;;;;;;20.74;83.61;99221.44;348009;28;1266;-83
2022/09/12 00:36:49;;;;;;;842.37;788.33;;;;;;;20.75;83.70;99216.97;349311;28;1289;-83
2022/09/12 00:36:59;;;;;;;854.58;799.90;;;;;;;20.76;83.62;99218.66;347231;28;1267;-82
2022/09/12 00:37:10;;;;;;;858.57;803.37;;;;;;;20.75;83.88;99209.81;347897;28;1286;-82
2022/09/12 00:37:22;;;;;;;862.30;806.85;;;;;;;20.74;83.72;99218.78;346356;28;1208;-82
2022/09/12 00:37:33;;;;;;;856.28;801.20;;;;;;;20.76;83.44;99218.66;347855;28;1485;-82
2022/09/12 00:37:44;;;;;;;851.53;796.63;;;;;;;20.76;83.51;99219.50;347864;28;2956;-82
2022/09/12 00:37:54;;;;;;;842.70;788.30;;;;;;;20.76;83.78;99213.31;350798;28;2852;-82
2022/09/12 00:38:04;;;;;;;840.33;785.77;;;;;;;20.78;84.04;99222.84;352382;28;1186;-82
2022/09/12 00:38:15;;;;;;;846.53;791.70;;;;;;;20.75;84.06;99215.16;350247;28;1756;-83
2022/09/12 00:38:27;;;;;;;848.63;793.47;;;;;;;20.74;84.12;99218.78;348065;28;3021;-83
2022/09/12 00:38:40;;;;;;;847.17;792.40;;;;;;;20.74;84.33;99216.13;345121;28;1403;-83
2022/09/12 00:38:51;;;;;;;842.58;788.13;;;;;;;20.71;84.00;99211.06;350157;28;1298;-82
2022/09/12 00:39:02;;;;;;;841.50;786.75;;;;;;;20.71;84.36;99216.41;348409;28;1258;-84
2022/09/12 00:39:16;;;;;;;837.67;783.13;;;;;;;20.70;84.09;99217.38;345537;28;1109;-82
2022/09/12 00:39:26;;;;;;;840.88;786.25;;;;;;;20.74;84.21;99217.94;346554;28;1310;-83
2022/09/12 00:39:37;;;;;;;839.50;785.03;;;;;;;20.73;84.28;99213.59;348403;28;1397;-83
2022/09/12 00:39:47;;;;;;;840.60;785.90;;;;;;;20.70;84.15;99220.03;344086;28;1333;-82
2022/09/12 00:39:57;;;;;;;840.03;785.13;;;;;;;20.70;84.11;99217.38;345517;28;1359;-83
2022/09/12 00:40:08;;;;;;;841.25;786.25;;;;;;;20.71;83.93;99219.06;347425;28;1276;-83
2022/09/12 00:40:19;;;;;;;840.58;785.75;;;;;;;20.69;84.43;99210.38;343884;28;1003;-83
2022/09/12 00:40:30;;;;;;;836.92;782.38;;;;;;;20.67;84.57;99214.97;343169;28;1270;-82
2022/09/12 00:40:40;;;;;;;830.87;776.50;;;;;;;20.67;84.33;99214.97;343871;28;1328;-82
2022/09/12 00:40:51;;;;;;;830.85;776.38;;;;;;;20.66;84.39;99215.97;343383;28;1328;-82
2022/09/12 00:41:01;;;;;;;834.50;779.70;;;;;;;20.67;84.37;99212.31;342844;28;1392;-82
2022/09/12 00:41:22;;;;;;;837.90;783.22;;;;;;;20.68;84.55;99211.34;340647;29;1378;-82
2022/09/12 00:41:34;;;;;;;838.50;784.67;;;;;;;20.70;84.32;99216.53;345283;28;963;-82
2022/09/12 00:41:45;;;;;;;845.92;791.72;;;;;;;20.68;84.70;99214.00;346721;28;904;-83
2022/09/12 00:41:56;;;;;;;858.03;802.85;;;;;;;20.70;84.76;99213.88;346763;28;1355;-82
2022/09/12 00:42:08;;;;;;;855.65;800.25;;;;;;;20.68;84.79;99215.81;345450;28;1397;-82
2022/09/12 00:42:19;;;;;;;855.85;800.78;;;;;;;20.65;84.95;99210.78;342413;28;1323;-82
2022/09/12 00:42:29;;;;;;;855.70;800.88;;;;;;;20.68;84.63;99215.81;340135;29;1270;-83
2022/09/12 00:42:40;;;;;;;862.83;807.80;;;;;;;20.69;84.61;99212.19;341349;29;1299;-82
2022/09/12 00:42:51;;;;;;;865.35;810.13;;;;;;;20.67;84.54;99208.81;340055;29;1365;-84
2022/09/12 00:43:01;;;;;;;860.08;804.83;;;;;;;20.67;84.57;99204.34;338525;29;1372;-80
2022/09/12 00:43:13;;;;;;;855.60;800.37;;;;;;;20.62;84.17;99203.91;333852;29;1170;-83
2022/09/12 00:43:29;;;;;;;852.72;797.35;;;;;;;20.60;84.53;99213.84;335143;29;1371;-82
2022/09/12 00:43:42;;;;;;;852.38;797.65;;;;;;;20.56;84.48;99213.28;337293;29;1356;-82
2022/09/12 00:43:57;;;;;;;856.95;802.30;;;;;;;20.56;84.67;99204.44;334713;29;1387;-82
2022/09/12 00:44:23;;;;;;;860.60;805.53;;;;;;;20.57;84.98;99209.63;332756;29;1978;-83
2022/09/12 00:44:33;;;;;;;852.13;798.25;;;;;;;20.59;85.28;99206.84;333861;29;1302;-82
2022/09/12 00:44:46;;;;;;;850.13;796.33;;;;;;;20.58;84.81;99205.16;337415;29;1303;-82
2022/09/12 00:44:56;;;;;;;853.88;799.55;;;;;;;20.61;84.98;99210.19;331204;29;1619;-83
2022/09/12 00:45:10;;;;;;;855.95;801.35;;;;;;;20.60;85.47;99203.19;331271;29;1067;-83
2022/09/12 00:45:26;;;;;;;854.65;799.92;;;;;;;20.53;85.20;99204.72;332575;29;1287;-82
2022/09/12 00:45:37;;;;;;;855.63;800.80;;;;;;;20.51;85.31;99204.84;334458;29;1760;-82
2022/09/12 00:45:47;;;;;;;858.33;803.42;;;;;;;20.42;84.52;99199.50;330298;29;1618;-82
2022/09/12 00:45:58;;;;;;;862.25;806.88;;;;;;;20.38;85.17;99203.41;329557;30;1348;-82
2022/09/12 00:46:16;;;;;;;861.60;806.25;;;;;;;20.40;84.99;99198.78;332897;29;1707;-82
2022/09/12 00:46:47;;;;;;;859.80;804.90;;;;;;;20.42;85.29;99204.81;330882;29;1412;-83
2022/09/12 00:46:57;;;;;;;867.00;812.60;;;;;;;20.49;85.00;99200.66;328307;30;3663;-82
2022/09/12 00:47:18;;;;;;;866.37;811.77;;;;;;;20.52;85.36;99200.38;325732;30;3122;-82
2022/09/12 00:47:29;;;;;;;859.70;804.80;;;;;;;20.33;84.30;99195.84;325188;30;1372;-83
2022/09/12 00:47:39;;;;;;;862.13;806.93;;;;;;;20.27;84.86;99201.69;321000;30;1789;-81
2022/09/12 00:47:50;;;;;;;863.30;808.00;;;;;;;20.26;85.49;99200.84;315155;31;2444;-81
2022/09/12 00:48:02;;;;;;;874.67;818.87;;;;;;;20.29;85.41;99204.22;314835;31;1295;-82
2022/09/12 00:48:19;;;;;;;879.40;823.42;;;;;;;20.27;85.66;99199.03;314409;31;1352;-82
2022/09/12 00:48:36;;;;;;;870.92;815.22;;;;;;;20.31;85.81;99202.25;312372;31;1339;-83
2022/09/12 00:48:49;;;;;;;870.78;815.15;;;;;;;20.32;85.99;99193.31;309126;31;1292;-82
2022/09/12 00:49:06;;;;;;;878.47;822.90;;;;;;;20.34;85.61;99196.66;310489;31;1337;-83
2022/09/12 00:49:29;;;;;;;877.88;822.15;;;;;;;20.37;85.76;99202.53;309200;32;1015;-82
2022/09/12 00:49:55;;;;;;;861.65;806.53;;;;;;;20.38;84.72;99198.09;309427;31;2089;-82
2022/09/12 00:50:10;;;;;;;872.08;817.03;;;;;;;20.29;84.44;99193.56;303488;32;3057;-82
2022/09/12 00:50:20;;;;;;;891.90;836.45;;;;;;;20.25;84.69;99193.84;300839;32;3544;-82
2022/09/12 00:50:31;;;;;;;897.70;841.90;;;;;;;20.27;84.89;99201.69;299683;33;1160;-82
2022/09/12 00:50:41;;;;;;;895.88;840.03;;;;;;;20.29;85.27;99196.22;300682;32;3015;-82
2022/09/12 00:50:51;;;;;;;895.87;839.67;;;;;;;20.27;85.23;99191.88;301098;32;2709;-82
2022/09/12 00:51:02;;;;;;;897.50;841.35;;;;;;;20.29;85.25;99194.41;299927;32;2515;-81
2022/09/12 00:51:12;;;;;;;902.83;846.43;;;;;;;20.27;85.57;99189.22;300492;32;805;-82
2022/09/12 00:51:23;;;;;;;903.17;846.73;;;;;;;20.27;85.15;99191.88;299271;32;2216;-82
2022/09/12 00:51:33;;;;;;;902.45;845.92;;;;;;;20.30;85.40;99185.47;297501;32;2522;-82
2022/09/12 00:51:47;;;;;;;895.93;839.60;;;;;;;20.33;85.52;99192.34;298789;33;1327;-83
2022/09/12 00:52:09;;;;;;;895.08;839.22;;;;;;;20.36;85.43;99189.41;296804;33;1338;-81
2022/09/12 00:52:29;;;;;;;884.78;829.63;;;;;;;20.38;85.17;99187.47;292203;33;4975;-81
2022/09/12 00:52:51;;;;;;;879.60;824.42;;;;;;;20.38;85.12;99182.97;295529;33;5167;-81
2022/09/12 00:53:03;;;;;;;877.90;823.05;;;;;;;20.40;85.04;99183.69;291763;34;1729;-80
2022/09/12 00:53:13;;;;;;;881.65;826.63;;;;;;;20.43;84.86;99190.56;288960;34;1338;-80
2022/09/12 00:53:24;;;;;;;883.77;828.37;;;;;;;20.45;84.94;99188.59;288159;34;3521;-81
2022/09/12 00:53:34;;;;;;;880.53;825.08;;;;;;;20.47;84.58;99186.66;284562;34;2905;-81
2022/09/12 00:53:45;;;;;;;876.27;820.67;;;;;;;20.47;84.73;99190.16;285313;34;1036;-80
2022/09/12 00:53:55;;;;;;;875.83;819.70;;;;;;;20.43;84.51;99186.06;283298;34;3579;-80
2022/09/12 00:54:09;;;;;;;879.23;822.83;;;;;;;20.45;84.65;99189.44;280185;34;5188;-80
2022/09/12 00:54:21;;;;;;;877.97;821.75;;;;;;;20.43;84.42;99182.56;278043;35;6288;-80
2022/09/12 00:54:37;;;;;;;879.58;823.58;;;;;;;20.41;84.32;99181.88;276506;35;7218;-80
2022/09/12 00:54:58;;;;;;;874.85;819.40;;;;;;;20.36;84.71;99186.75;268631;35;8032;-80
2022/09/12 01:07:49;;;;;;;822.34;769.38;;;;;;;20.31;83.86;99187.16;2500410;27;20501;-83
2022/09/12 01:08:01;;;;;;;893.27;837.77;;;;;;;20.33;84.10;99184.34;352107;28;1258;-83
2022/09/12 01:08:11;;;;;;;894.88;839.05;;;;;;;20.33;84.13;99184.34;347598;28;1459;-83
2022/09/12 01:08:22;;;;;;;896.23;840.03;;;;;;;20.33;84.30;99187.84;347255;28;952;-83
2022/09/12 01:08:33;;;;;;;891.03;835.15;;;;;;;20.32;84.39;99188.84;347574;28;1253;-83
2022/09/12 01:08:43;;;;;;;887.50;832.03;;;;;;;20.32;84.35;99188.00;348925;28;1448;-83
2022/09/12 01:08:54;;;;;;;886.03;830.57;;;;;;;20.34;84.21;99191.34;350353;28;1207;-83
2022/09/12 01:09:04;;;;;;;880.72;825.33;;;;;;;20.36;84.33;99192.06;349242;28;1197;-83
2022/09/12 01:09:17;;;;;;;880.90;825.33;;;;;;;20.37;84.30;99185.75;349908;28;1175;-83
2022/09/12 01:09:27;;;;;;;883.50;827.97;;;;;;;20.36;84.42;99189.41;350490;28;1462;-83
2022/09/12 01:09:37;;;;;;;887.70;832.07;;;;;;;20.35;84.51;99187.72;350340;28;1454;-83
2022/09/12 01:09:48;;;;;;;888.80;833.05;;;;;;;20.33;84.33;99189.69;350705;28;1318;-82
2022/09/12 01:09:58;;;;;;;886.83;831.03;;;;;;;20.34;84.57;99181.56;349777;28;899;-82
2022/09/12 01:10:09;;;;;;;887.63;831.85;;;;;;;20.29;84.19;99183.78;349122;28;836;-83
2022/09/12 01:10:20;;;;;;;894.63;838.63;;;;;;;20.22;84.19;99182.63;353229;28;1476;-83
2022/09/12 01:10:30;;;;;;;897.83;841.58;;;;;;;20.15;84.37;99182.31;350503;28;1230;-83
2022/09/12 01:10:41;;;;;;;898.78;842.42;;;;;;;20.14;84.70;99182.47;347864;28;1232;-83
2022/09/12 01:10:51;;;;;;;892.43;836.23;;;;;;;20.15;84.26;99187.66;347649;28;1211;-83
2022/09/12 01:11:03;;;;;;;892.20;836.30;;;;;;;20.17;84.50;99185.69;349004;28;1210;-83
2022/09/12 01:11:14;;;;;;;891.13;835.42;;;;;;;20.19;85.09;99189.06;350261;28;962;-83